Time;durP1;ratioP1;P1;durP2;ratioP2;P2;SDS_P1;SDS_P2;PMS_P1;PMS_P2;Temp;Humidity;BMP_temperature;BMP_pressure;BME280_temperature;BME280_humidity;BME280_pressure;Samples;Min_cycle;Max_cycle;Signal;HPM_P1;HPM_P2
2023/09/28 00:00:35;;;;;;;3.15;1.50;;;17.20;1.00;;;;;;5083423;28;20055;-78
2023/09/28 00:02:47;;;;;;;3.47;1.55;;;17.10;1.00;;;;;;5081072;28;20067;-78
2023/09/28 00:05:15;;;;;;;4.53;1.45;;;17.20;1.00;;;;;;5048598;28;20082;-78
2023/09/28 00:07:42;;;;;;;4.05;1.90;;;17.20;1.00;;;;;;5082481;28;20048;-78
2023/09/28 00:10:15;;;;;;;4.70;1.50;;;17.20;1.00;;;;;;5084346;28;20666;-78
2023/09/28 00:12:44;;;;;;;3.80;1.58;;;17.10;1.00;;;;;;5084119;28;20036;-77
2023/09/28 00:15:11;;;;;;;2.72;1.50;;;17.10;1.00;;;;;;5085283;28;20044;-78
2023/09/28 00:17:38;;;;;;;6.75;1.80;;;17.00;1.00;;;;;;5086043;28;20384;-78
2023/09/28 00:20:13;;;;;;;5.43;1.88;;;17.00;1.00;;;;;;5051999;28;20144;-78
2023/09/28 00:22:43;;;;;;;3.10;1.20;;;16.90;1.00;;;;;;5067113;28;20040;-78
2023/09/28 00:25:11;;;;;;;3.67;1.58;;;16.90;1.00;;;;;;5048452;28;20317;-78
2023/09/28 00:27:38;;;;;;;4.15;1.60;;;16.90;1.00;;;;;;5064032;28;20044;-77
2023/09/28 00:30:30;;;;;;;4.38;1.60;;;16.80;1.00;;;;;;5067025;28;20048;-77
2023/09/28 00:32:56;;;;;;;4.47;1.95;;;16.80;1.00;;;;;;5083930;28;20332;-77
2023/09/28 00:35:23;;;;;;;5.93;1.40;;;16.70;1.00;;;;;;5085520;28;20138;-77
2023/09/28 00:37:50;;;;;;;3.42;1.45;;;16.70;1.00;;;;;;5049187;28;20044;-77
2023/09/28 00:40:19;;;;;;;3.72;1.30;;;16.70;1.00;;;;;;5083718;28;20062;-77
2023/09/28 00:42:50;;;;;;;3.08;1.73;;;16.60;1.00;;;;;;5083765;28;20181;-77
2023/09/28 00:45:17;;;;;;;3.65;1.52;;;16.50;1.00;;;;;;5067269;28;20137;-77
2023/09/28 00:47:44;;;;;;;4.70;1.80;;;16.50;1.00;;;;;;5066830;28;20052;-77
2023/09/28 00:50:14;;;;;;;5.20;1.90;;;16.50;1.00;;;;;;5050648;28;20078;-77
2023/09/28 00:52:48;;;;;;;5.18;1.52;;;16.50;1.00;;;;;;5066120;28;20632;-77
2023/09/28 00:55:16;;;;;;;4.80;1.55;;;16.50;1.00;;;;;;5095661;28;20054;-77
2023/09/28 00:57:43;;;;;;;7.47;2.72;;;16.40;1.00;;;;;;5082218;28;20051;-77
2023/09/28 01:00:26;;;;;;;4.85;1.80;;;16.40;1.00;;;;;;5084509;28;20113;-77
2023/09/28 01:02:57;;;;;;;3.97;1.60;;;16.40;1.00;;;;;;5080361;28;20056;-78
2023/09/28 01:05:34;;;;;;;4.57;1.60;;;16.40;1.00;;;;;;5080730;28;20117;-77
2023/09/28 01:08:09;;;;;;;3.25;1.50;;;16.30;1.00;;;;;;5065537;28;20487;-77
2023/09/28 01:10:37;;;;;;;3.75;1.55;;;16.30;1.00;;;;;;5067427;28;20075;-77
2023/09/28 01:13:11;;;;;;;2.58;1.27;;;16.30;1.00;;;;;;5049101;28;20066;-77
2023/09/28 01:15:39;;;;;;;3.75;1.45;;;16.30;1.00;;;;;;5067553;28;20399;-77
2023/09/28 01:18:15;;;;;;;2.58;1.17;;;16.30;1.00;;;;;;5067188;28;20062;-77
2023/09/28 01:20:46;;;;;;;3.78;1.63;;;16.30;1.00;;;;;;5083574;28;20602;-77
2023/09/28 01:23:16;;;;;;;3.70;1.83;;;16.30;1.00;;;;;;5065481;28;20058;-77
2023/09/28 01:25:47;;;;;;;2.95;1.35;;;16.30;1.00;;;;;;5067107;28;20052;-77
2023/09/28 01:28:16;;;;;;;4.85;1.58;;;16.40;1.00;;;;;;5083138;28;20047;-78
2023/09/28 01:30:44;;;;;;;4.63;1.83;;;16.40;1.00;;;;;;5064674;28;20052;-77
2023/09/28 01:33:12;;;;;;;3.20;1.52;;;16.40;1.00;;;;;;5065834;28;20078;-78
2023/09/28 01:35:40;;;;;;;5.03;1.55;;;16.50;1.00;;;;;;5082990;28;20093;-77
2023/09/28 01:38:40;;;;;;;3.42;1.23;;;16.50;1.00;;;;;;5083029;28;20083;-77
2023/09/28 01:41:08;;;;;;;3.30;1.33;;;16.40;1.00;;;;;;5053979;28;20063;-77
2023/09/28 01:43:36;;;;;;;3.13;1.50;;;16.40;1.00;;;;;;5086961;28;20044;-77
2023/09/28 01:46:03;;;;;;;4.05;1.48;;;16.30;1.00;;;;;;5044763;28;20131;-78
2023/09/28 01:48:30;;;;;;;4.32;1.48;;;16.30;1.00;;;;;;5066531;28;20064;-78
2023/09/28 01:50:57;;;;;;;2.63;1.38;;;16.30;1.00;;;;;;5084116;28;20097;-77
2023/09/28 01:53:24;;;;;;;2.08;1.13;;;16.30;1.00;;;;;;5082290;28;20101;-78
2023/09/28 01:55:51;;;;;;;3.88;1.63;;;16.20;1.00;;;;;;5085056;28;20087;-77
2023/09/28 01:58:18;;;;;;;4.72;1.73;;;16.30;1.00;;;;;;5084913;28;20414;-78
2023/09/28 02:00:46;;;;;;;2.00;1.30;;;16.30;1.00;;;;;;5084836;28;20471;-78
2023/09/28 02:03:14;;;;;;;1.92;1.00;;;16.30;1.00;;;;;;5084587;28;20059;-78
2023/09/28 02:05:42;;;;;;;4.35;1.40;;;16.30;1.00;;;;;;5086465;28;20055;-78
2023/09/28 02:08:09;;;;;;;3.08;1.45;;;16.30;1.00;;;;;;5084512;28;20431;-77
2023/09/28 02:10:36;;;;;;;2.75;1.17;;;16.40;1.00;;;;;;5086554;28;20067;-77
2023/09/28 02:13:04;;;;;;;4.18;1.52;;;16.50;1.00;;;;;;5068483;28;20117;-79
2023/09/28 02:15:32;;;;;;;3.10;1.23;;;16.50;1.00;;;;;;5068500;28;20109;-78
2023/09/28 02:17:59;;;;;;;3.13;1.20;;;16.50;1.00;;;;;;5068617;28;20614;-78
2023/09/28 02:20:26;;;;;;;2.92;1.05;;;16.50;1.00;;;;;;5085614;28;20074;-78
2023/09/28 02:22:53;;;;;;;1.73;1.13;;;16.60;1.00;;;;;;5067203;28;20097;-78
2023/09/28 02:25:24;;;;;;;2.17;1.27;;;16.60;1.00;;;;;;5067752;28;20130;-78
2023/09/28 02:27:52;;;;;;;5.30;1.70;;;16.60;1.00;;;;;;5084453;28;20449;-78
2023/09/28 02:30:20;;;;;;;3.72;1.55;;;16.60;1.00;;;;;;5068857;28;20076;-78
2023/09/28 02:32:47;;;;;;;3.22;1.55;;;16.60;1.00;;;;;;5084072;28;20168;-77
2023/09/28 02:35:16;;;;;;;4.75;1.40;;;16.70;1.00;;;;;;5084515;28;20443;-77
2023/09/28 02:37:45;;;;;;;3.20;1.13;;;16.70;1.00;;;;;;5084751;28;20066;-78
2023/09/28 02:40:13;;;;;;;2.75;1.30;;;16.70;1.00;;;;;;5085041;28;20074;-78
2023/09/28 02:42:41;;;;;;;2.85;1.38;;;16.80;1.00;;;;;;5051359;28;20036;-77
2023/09/28 02:45:11;;;;;;;2.67;1.20;;;16.80;1.00;;;;;;5068547;28;20059;-77
2023/09/28 02:47:43;;;;;;;3.53;1.08;;;16.80;1.00;;;;;;5084299;28;20059;-77
2023/09/28 02:50:11;;;;;;;2.85;1.50;;;16.80;1.00;;;;;;5086376;28;20078;-78
2023/09/28 02:52:39;;;;;;;2.90;1.27;;;16.80;1.00;;;;;;5088450;28;20577;-78
2023/09/28 02:55:07;;;;;;;3.25;1.20;;;16.80;1.00;;;;;;5067947;28;20055;-78
2023/09/28 02:57:35;;;;;;;4.90;1.83;;;16.80;1.00;;;;;;5084629;28;20047;-77
2023/09/28 03:00:11;;;;;;;3.08;1.25;;;16.90;1.00;;;;;;5084728;28;20426;-77
2023/09/28 03:02:38;;;;;;;4.55;1.35;;;16.90;1.00;;;;;;5069094;28;20442;-77
2023/09/28 03:05:07;;;;;;;5.03;2.00;;;16.80;1.00;;;;;;5051202;28;20131;-78
2023/09/28 03:07:35;;;;;;;2.83;1.60;;;16.80;1.00;;;;;;5082873;28;20135;-77
2023/09/28 03:10:04;;;;;;;4.15;1.40;;;16.70;1.00;;;;;;5084992;28;20036;-77
2023/09/28 03:12:31;;;;;;;3.55;1.40;;;16.70;1.00;;;;;;5083530;28;20036;-77
2023/09/28 03:14:58;;;;;;;3.28;1.13;;;16.60;1.00;;;;;;5084252;28;20449;-77
2023/09/28 03:17:25;;;;;;;3.80;1.20;;;16.60;1.00;;;;;;5086053;28;20051;-77
2023/09/28 03:19:52;;;;;;;4.40;1.45;;;16.50;1.00;;;;;;5084478;28;20552;-77
2023/09/28 03:22:20;;;;;;;2.90;1.30;;;16.50;1.00;;;;;;5084573;28;20087;-77
2023/09/28 03:24:47;;;;;;;3.15;1.27;;;16.50;1.00;;;;;;5085874;28;20058;-77
2023/09/28 03:27:14;;;;;;;3.67;1.42;;;16.40;1.00;;;;;;5085997;28;20052;-77
2023/09/28 03:29:42;;;;;;;4.18;1.13;;;16.40;1.00;;;;;;5086219;28;20075;-78
2023/09/28 03:32:09;;;;;;;3.15;1.42;;;16.30;1.00;;;;;;5067540;28;20165;-77
2023/09/28 03:34:36;;;;;;;3.83;1.42;;;16.20;1.00;;;;;;5067691;28;20548;-77
2023/09/28 03:37:04;;;;;;;2.40;1.10;;;16.20;1.00;;;;;;5070064;28;20669;-78
2023/09/28 03:39:31;;;;;;;3.47;1.17;;;16.20;1.00;;;;;;5089808;28;20487;-78
2023/09/28 03:41:58;;;;;;;2.13;1.05;;;16.20;1.00;;;;;;5088836;28;20051;-78
2023/09/28 03:44:24;;;;;;;3.83;1.08;;;16.10;1.00;;;;;;5089072;28;20044;-78
2023/09/28 03:46:51;;;;;;;2.28;1.10;;;16.20;1.00;;;;;;5088734;28;20047;-78
2023/09/28 03:49:18;;;;;;;2.80;1.15;;;16.10;1.00;;;;;;5087904;28;20159;-77
2023/09/28 03:51:45;;;;;;;3.88;1.20;;;16.20;1.00;;;;;;5087782;28;20059;-78
2023/09/28 03:54:12;;;;;;;1.95;1.05;;;16.20;1.00;;;;;;5089012;28;20093;-78
2023/09/28 03:56:38;;;;;;;1.98;1.25;;;16.20;1.00;;;;;;5070116;28;20508;-78
2023/09/28 03:59:06;;;;;;;2.90;1.27;;;16.20;1.00;;;;;;5072076;28;20048;-78
2023/09/28 04:01:33;;;;;;;2.38;1.10;;;16.20;1.00;;;;;;5088022;28;20044;-78
2023/09/28 04:04:00;;;;;;;3.33;1.23;;;16.20;1.00;;;;;;5088962;28;20051;-78
2023/09/28 04:06:28;;;;;;;2.03;0.85;;;16.20;1.00;;;;;;5087326;28;20059;-77
2023/09/28 04:08:55;;;;;;;2.28;1.10;;;16.30;1.00;;;;;;5086263;28;20046;-78
2023/09/28 04:11:22;;;;;;;1.83;1.00;;;16.30;1.00;;;;;;5086758;28;20055;-78
2023/09/28 04:13:49;;;;;;;3.10;1.13;;;16.30;1.00;;;;;;5070231;28;20058;-78
2023/09/28 04:16:15;;;;;;;4.03;1.58;;;16.30;1.00;;;;;;5087990;28;20078;-78
2023/09/28 04:18:42;;;;;;;3.03;1.20;;;16.30;1.00;;;;;;5070801;28;20048;-77
2023/09/28 04:21:09;;;;;;;4.03;1.42;;;16.40;1.00;;;;;;5088050;28;20052;-78
2023/09/28 04:23:36;;;;;;;2.72;1.10;;;16.40;1.00;;;;;;5085600;28;20068;-77
2023/09/28 04:26:05;;;;;;;3.90;1.50;;;16.30;1.00;;;;;;5087603;28;20048;-77
2023/09/28 04:28:32;;;;;;;2.45;1.00;;;16.40;1.00;;;;;;5086564;28;20099;-77
2023/09/28 04:30:59;;;;;;;2.03;1.20;;;16.40;1.00;;;;;;5085814;28;20074;-78
2023/09/28 04:33:26;;;;;;;3.05;0.98;;;16.30;1.00;;;;;;5087968;28;20126;-77
2023/09/28 04:35:53;;;;;;;2.08;1.00;;;16.30;1.00;;;;;;5087686;28;20428;-77
2023/09/28 04:38:20;;;;;;;4.05;1.73;;;16.30;1.00;;;;;;5074791;28;20056;-77
2023/09/28 04:40:47;;;;;;;3.63;1.35;;;16.30;1.00;;;;;;5082902;28;20252;-78
2023/09/28 04:43:14;;;;;;;3.03;1.40;;;16.30;1.00;;;;;;5085533;28;20119;-78
2023/09/28 04:45:41;;;;;;;4.05;1.45;;;16.30;1.00;;;;;;5086963;28;20050;-77
2023/09/28 04:48:08;;;;;;;2.85;1.17;;;16.30;1.00;;;;;;5074379;28;20167;-78
2023/09/28 04:50:37;;;;;;;2.65;1.02;;;16.20;1.00;;;;;;5075200;28;20052;-77
2023/09/28 04:53:03;;;;;;;4.05;1.15;;;16.20;1.00;;;;;;5081123;28;20059;-77
2023/09/28 04:55:30;;;;;;;3.55;1.35;;;16.20;1.00;;;;;;5067416;28;20079;-78
2023/09/28 04:57:58;;;;;;;3.25;1.00;;;16.20;1.00;;;;;;5082949;28;20052;-76
2023/09/28 05:00:25;;;;;;;1.48;0.85;;;16.20;1.00;;;;;;5080698;28;20731;-77
2023/09/28 05:02:51;;;;;;;1.80;0.93;;;16.20;1.00;;;;;;5087256;28;20071;-77
2023/09/28 05:05:18;;;;;;;2.28;0.90;;;16.20;1.00;;;;;;5074374;28;20097;-77
2023/09/28 05:07:45;;;;;;;2.05;0.75;;;16.20;1.00;;;;;;5036114;28;20055;-77
2023/09/28 05:10:12;;;;;;;2.97;1.15;;;16.20;1.00;;;;;;5076108;28;20102;-77
2023/09/28 05:12:39;;;;;;;2.13;1.10;;;16.20;1.00;;;;;;5073369;28;20044;-77
2023/09/28 05:15:08;;;;;;;2.17;1.05;;;16.20;1.00;;;;;;5075327;28;20135;-77
2023/09/28 05:17:35;;;;;;;2.83;0.90;;;16.20;1.00;;;;;;5071253;28;20075;-78
2023/09/28 05:20:02;;;;;;;2.28;1.17;;;16.20;1.00;;;;;;5071537;28;20047;-77
2023/09/28 05:22:30;;;;;;;3.75;1.27;;;16.20;1.00;;;;;;5073581;28;20483;-77
2023/09/28 05:24:57;;;;;;;1.63;0.75;;;16.10;1.00;;;;;;5076152;28;20458;-76
2023/09/28 05:27:24;;;;;;;1.50;0.90;;;16.10;1.00;;;;;;5059584;28;20969;-77
2023/09/28 05:29:50;;;;;;;1.05;0.70;;;16.20;1.00;;;;;;5071778;28;20166;-77
2023/09/28 05:32:17;;;;;;;1.95;0.95;;;16.20;1.00;;;;;;5072698;28;20438;-77
2023/09/28 05:34:44;;;;;;;1.38;0.60;;;16.20;1.00;;;;;;5072935;28;20049;-77
2023/09/28 05:37:12;;;;;;;2.55;0.88;;;16.20;1.00;;;;;;5071931;28;20517;-78
2023/09/28 05:39:39;;;;;;;1.35;0.70;;;16.20;1.00;;;;;;5072407;28;20077;-77
2023/09/28 05:42:06;;;;;;;1.48;0.80;;;16.20;1.00;;;;;;5072327;28;20243;-77
2023/09/28 05:44:34;;;;;;;0.98;0.68;;;16.20;1.00;;;;;;5081729;28;20404;-77
2023/09/28 05:47:01;;;;;;;1.35;0.50;;;16.20;1.00;;;;;;5074175;28;20064;-77
2023/09/28 05:49:29;;;;;;;2.20;0.70;;;16.20;1.00;;;;;;5063398;28;20550;-77
2023/09/28 05:51:56;;;;;;;2.35;1.23;;;16.20;1.00;;;;;;5065246;28;20094;-77
2023/09/28 05:54:23;;;;;;;1.27;0.52;;;16.20;1.00;;;;;;5070125;28;20135;-77
2023/09/28 05:56:51;;;;;;;2.20;0.90;;;16.20;1.00;;;;;;5068884;28;20409;-77
2023/09/28 05:59:18;;;;;;;0.80;0.50;;;16.20;1.00;;;;;;5070000;28;20048;-82
2023/09/28 06:01:45;;;;;;;2.10;0.75;;;16.20;1.00;;;;;;5054701;28;20040;-82
2023/09/28 06:04:13;;;;;;;1.85;0.95;;;16.20;1.00;;;;;;5070871;28;20050;-82
2023/09/28 06:06:40;;;;;;;1.80;0.80;;;16.20;1.00;;;;;;5079537;28;20052;-80
2023/09/28 06:09:07;;;;;;;1.48;0.60;;;16.20;1.00;;;;;;5081971;28;20123;-81
2023/09/28 06:11:34;;;;;;;1.25;0.70;;;16.20;1.00;;;;;;5081110;28;20500;-82
2023/09/28 06:14:02;;;;;;;1.17;0.52;;;16.20;1.00;;;;;;5052515;28;20483;-81
2023/09/28 06:16:36;;;;;;;1.52;0.80;;;16.20;1.00;;;;;;5063522;28;20137;-79
2023/09/28 06:19:04;;;;;;;1.60;0.63;;;16.20;1.00;;;;;;5075420;28;20639;-81
2023/09/28 06:21:31;;;;;;;2.47;0.85;;;16.20;1.00;;;;;;5060670;28;20040;-82
2023/09/28 06:23:58;;;;;;;1.05;0.63;;;16.20;1.00;;;;;;5060877;28;20037;-83
2023/09/28 06:26:26;;;;;;;2.65;0.98;;;16.20;1.00;;;;;;5043615;28;20071;-82
2023/09/28 06:29:08;;;;;;;1.35;0.88;;;16.20;1.00;;;;;;5073917;28;20150;-82
2023/09/28 06:31:35;;;;;;;2.38;0.80;;;16.20;1.00;;;;;;5047397;28;20036;-83
2023/09/28 06:34:02;;;;;;;1.80;0.80;;;16.20;1.00;;;;;;5079978;28;20047;-84
2023/09/28 06:36:29;;;;;;;1.33;0.70;;;16.20;1.00;;;;;;5046901;28;20036;-83
2023/09/28 06:38:59;;;;;;;1.63;0.95;;;16.30;1.00;;;;;;5072591;28;20056;-83
2023/09/28 06:41:27;;;;;;;1.88;1.13;;;16.30;1.00;;;;;;5062227;28;20265;-82
2023/09/28 06:43:54;;;;;;;2.83;1.10;;;16.30;1.00;;;;;;5063934;28;20134;-83
2023/09/28 06:46:21;;;;;;;2.10;1.17;;;16.30;1.00;;;;;;5078147;28;20127;-83
2023/09/28 06:48:49;;;;;;;2.47;1.33;;;16.30;1.00;;;;;;5077862;28;20546;-84
2023/09/28 06:51:17;;;;;;;1.95;0.80;;;16.30;1.00;;;;;;5082546;28;20234;-83
2023/09/28 06:53:44;;;;;;;2.35;0.90;;;16.30;1.00;;;;;;5064188;28;20235;-84
2023/09/28 06:56:11;;;;;;;1.23;0.70;;;16.30;1.00;;;;;;5065651;28;20052;-81
2023/09/28 06:58:40;;;;;;;1.67;0.63;;;16.30;1.00;;;;;;5062010;28;20053;-83
2023/09/28 07:01:08;;;;;;;1.23;0.55;;;16.30;1.00;;;;;;5062099;28;20139;-84
2023/09/28 07:03:35;;;;;;;1.42;0.65;;;16.30;1.00;;;;;;5074761;28;20437;-83
2023/09/28 07:06:02;;;;;;;1.70;0.68;;;16.30;1.00;;;;;;5081020;28;20131;-82
2023/09/28 07:08:29;;;;;;;0.70;0.60;;;16.30;1.00;;;;;;5085342;28;20145;-83
2023/09/28 07:10:56;;;;;;;0.95;0.50;;;16.20;1.00;;;;;;5070952;28;20131;-81
2023/09/28 07:13:23;;;;;;;1.73;0.88;;;16.30;1.00;;;;;;5088893;28;20051;-81
2023/09/28 07:15:50;;;;;;;1.65;0.60;;;16.20;1.00;;;;;;5089716;28;20499;-83
2023/09/28 07:18:18;;;;;;;0.63;0.40;;;16.30;1.00;;;;;;5054637;28;20056;-82
2023/09/28 07:20:46;;;;;;;0.82;0.40;;;16.30;1.00;;;;;;5089277;28;20055;-82
2023/09/28 07:23:12;;;;;;;0.63;0.55;;;16.30;1.00;;;;;;5085391;28;20056;-82
2023/09/28 07:25:40;;;;;;;0.52;0.40;;;16.30;1.00;;;;;;5085276;28;20048;-81
2023/09/28 07:28:07;;;;;;;0.82;0.43;;;16.30;1.00;;;;;;5067488;28;20060;-81
2023/09/28 07:30:35;;;;;;;0.40;0.40;;;16.30;1.00;;;;;;5084059;28;20048;-82
2023/09/28 07:33:03;;;;;;;1.20;0.47;;;16.30;1.00;;;;;;5053871;28;20059;-82
2023/09/28 07:35:30;;;;;;;1.17;0.50;;;16.30;1.00;;;;;;5070973;28;20101;-82
2023/09/28 07:37:57;;;;;;;0.77;0.43;;;16.30;1.00;;;;;;5069522;28;20072;-82
2023/09/28 07:40:27;;;;;;;1.90;0.70;;;16.30;1.00;;;;;;5053867;28;20415;-81
2023/09/28 07:43:12;;;;;;;0.40;0.40;;;16.20;1.00;;;;;;5046488;28;20218;-82
2023/09/28 07:45:40;;;;;;;0.95;0.55;;;16.30;1.00;;;;;;5064995;28;20051;-81
2023/09/28 07:48:07;;;;;;;0.98;0.55;;;16.30;1.00;;;;;;5066839;28;20109;-82
2023/09/28 07:50:35;;;;;;;1.80;0.60;;;16.30;1.00;;;;;;5083816;28;20116;-81
2023/09/28 07:53:02;;;;;;;1.05;0.70;;;16.30;1.00;;;;;;5051799;28;20048;-82
2023/09/28 07:55:29;;;;;;;0.98;0.63;;;16.30;1.00;;;;;;5084236;28;20260;-83
2023/09/28 07:57:56;;;;;;;1.30;0.57;;;16.30;1.00;;;;;;5053064;28;20048;-80
2023/09/28 08:00:43;;;;;;;1.40;0.70;;;16.30;1.00;;;;;;5076045;28;20045;-80
2023/09/28 08:03:10;;;;;;;1.70;0.63;;;16.30;1.00;;;;;;5059659;28;20044;-80
2023/09/28 08:05:37;;;;;;;1.13;0.68;;;16.30;1.00;;;;;;5078733;28;20079;-80
2023/09/28 08:08:05;;;;;;;1.75;1.02;;;16.30;1.00;;;;;;5075296;28;20055;-80
2023/09/28 08:10:42;;;;;;;2.05;0.60;;;16.30;1.00;;;;;;5059791;28;20044;-80
2023/09/28 08:13:09;;;;;;;1.33;0.80;;;16.30;1.00;;;;;;5078404;28;20060;-80
2023/09/28 08:15:40;;;;;;;2.05;0.68;;;16.30;1.00;;;;;;5080175;28;20048;-80
2023/09/28 08:18:08;;;;;;;1.67;0.57;;;16.40;1.00;;;;;;5075966;28;20560;-80
2023/09/28 08:20:35;;;;;;;1.27;0.60;;;16.40;1.00;;;;;;5049607;28;20040;-80
2023/09/28 08:23:04;;;;;;;1.05;0.75;;;16.40;1.00;;;;;;5089139;28;20047;-81
2023/09/28 08:25:33;;;;;;;0.90;0.40;;;16.50;1.00;;;;;;5077143;28;20355;-81
2023/09/28 08:27:59;;;;;;;1.13;0.65;;;16.60;1.00;;;;;;5092898;28;20270;-80
2023/09/28 08:30:26;;;;;;;1.42;0.50;;;16.70;1.00;;;;;;5080652;28;20040;-80
2023/09/28 08:32:53;;;;;;;2.22;0.98;;;16.70;1.00;;;;;;5075129;28;20092;-80
2023/09/28 08:35:20;;;;;;;0.70;0.40;;;16.80;1.00;;;;;;5079617;28;20136;-81
2023/09/28 08:37:48;;;;;;;1.65;0.60;;;16.90;1.00;;;;;;5059267;28;20058;-81
2023/09/28 08:40:15;;;;;;;0.88;0.57;;;17.00;1.00;;;;;;5067672;28;20051;-80
2023/09/28 08:42:45;;;;;;;0.95;0.60;;;17.10;1.00;;;;;;5059951;28;20204;-81
2023/09/28 08:45:14;;;;;;;1.35;0.65;;;17.20;1.00;;;;;;5079769;28;20071;-79
2023/09/28 08:47:48;;;;;;;1.08;0.50;;;17.30;1.00;;;;;;5058891;28;20456;-79
2023/09/28 08:50:22;;;;;;;1.42;0.73;;;17.30;1.00;;;;;;5071248;28;20071;-78
2023/09/28 08:52:50;;;;;;;1.85;0.80;;;17.30;1.00;;;;;;5078811;28;20398;-78
2023/09/28 08:55:17;;;;;;;0.60;0.60;;;17.40;1.00;;;;;;5049492;28;20044;-79
2023/09/28 08:57:44;;;;;;;1.42;0.70;;;17.40;1.00;;;;;;5066064;28;20449;-78
2023/09/28 09:00:13;;;;;;;1.77;0.73;;;17.40;1.00;;;;;;5066363;28;20232;-78
2023/09/28 09:02:42;;;;;;;1.80;0.77;;;17.30;1.00;;;;;;5068041;28;20055;-79
2023/09/28 09:05:13;;;;;;;0.65;0.55;;;17.40;1.00;;;;;;5069468;28;20345;-78
2023/09/28 09:07:43;;;;;;;1.85;1.00;;;17.40;1.00;;;;;;5051927;28;20086;-79
2023/09/28 09:10:12;;;;;;;2.00;0.70;;;17.40;1.00;;;;;;5085393;28;20044;-79
2023/09/28 09:12:39;;;;;;;1.17;0.88;;;17.40;1.00;;;;;;5048665;28;20579;-78
2023/09/28 09:15:06;;;;;;;1.45;0.70;;;17.50;1.00;;;;;;5078423;28;20052;-78
2023/09/28 09:17:34;;;;;;;1.48;0.90;;;17.60;1.00;;;;;;5068509;28;20059;-78
2023/09/28 09:20:02;;;;;;;2.58;0.90;;;17.70;1.00;;;;;;5067713;28;20466;-78
2023/09/28 09:22:29;;;;;;;1.52;0.60;;;17.90;1.00;;;;;;5080454;28;20056;-78
2023/09/28 09:25:12;;;;;;;0.68;0.43;;;18.10;1.00;;;;;;5061935;28;20170;-78
2023/09/28 09:27:38;;;;;;;2.10;0.85;;;18.20;1.00;;;;;;5061750;28;20048;-78
2023/09/28 09:30:08;;;;;;;0.90;0.63;;;18.30;1.00;;;;;;5080985;28;20052;-80
2023/09/28 09:32:35;;;;;;;1.83;0.80;;;18.40;1.00;;;;;;5084256;28;20139;-78
2023/09/28 09:35:02;;;;;;;1.70;0.80;;;18.50;1.00;;;;;;5065475;28;20436;-78
2023/09/28 09:37:32;;;;;;;0.88;0.63;;;18.60;1.00;;;;;;5073749;28;20066;-78
2023/09/28 09:40:12;;;;;;;1.60;0.90;;;18.70;1.00;;;;;;5079815;28;20047;-78
2023/09/28 09:42:39;;;;;;;1.85;0.70;;;18.80;1.00;;;;;;5086246;28;20052;-78
2023/09/28 09:45:07;;;;;;;1.67;0.73;;;18.90;1.00;;;;;;5083503;28;20128;-78
2023/09/28 09:47:34;;;;;;;1.25;0.60;;;18.90;1.00;;;;;;5085333;28;20055;-78
2023/09/28 09:50:01;;;;;;;1.33;0.80;;;19.00;1.00;;;;;;5081597;28;20066;-78
2023/09/28 09:52:28;;;;;;;1.85;0.93;;;18.90;1.00;;;;;;5080120;28;20063;-78
2023/09/28 09:54:55;;;;;;;2.10;0.90;;;18.90;1.00;;;;;;5048349;28;20052;-78
2023/09/28 09:57:22;;;;;;;1.42;0.82;;;19.00;1.00;;;;;;5047041;28;20048;-78
2023/09/28 09:59:49;;;;;;;1.52;0.95;;;19.00;1.00;;;;;;5057004;28;20036;-78
2023/09/28 10:02:25;;;;;;;1.23;0.85;;;19.30;1.00;;;;;;5047800;28;20055;-78
2023/09/28 10:04:56;;;;;;;2.78;1.05;;;19.40;1.00;;;;;;5066347;28;20501;-78
2023/09/28 10:07:30;;;;;;;1.73;0.70;;;19.40;1.00;;;;;;5047862;28;20060;-78
2023/09/28 10:10:14;;;;;;;1.35;0.70;;;19.30;1.00;;;;;;5067648;28;20051;-78
2023/09/28 10:12:41;;;;;;;1.15;0.70;;;19.20;1.00;;;;;;5063964;28;20048;-78
2023/09/28 10:15:08;;;;;;;1.60;0.80;;;19.20;1.00;;;;;;5050252;28;20435;-79
2023/09/28 10:17:35;;;;;;;1.10;0.50;;;19.20;1.00;;;;;;5067805;28;20058;-78
2023/09/28 10:20:02;;;;;;;1.50;0.85;;;19.20;1.00;;;;;;5067942;28;20415;-78
2023/09/28 10:22:30;;;;;;;1.27;0.60;;;19.30;1.00;;;;;;5052852;28;20051;-78
2023/09/28 10:24:56;;;;;;;1.80;0.93;;;19.20;1.00;;;;;;5079292;28;20052;-78
2023/09/28 10:27:23;;;;;;;2.00;1.08;;;19.10;1.00;;;;;;5070300;28;20051;-78
2023/09/28 10:29:50;;;;;;;1.60;0.75;;;19.10;1.00;;;;;;5081704;28;20044;-78
2023/09/28 10:32:29;;;;;;;2.58;0.70;;;19.10;1.00;;;;;;5064129;28;20040;-78
2023/09/28 10:35:13;;;;;;;1.65;0.85;;;19.10;1.00;;;;;;5065089;28;20186;-77
2023/09/28 10:37:40;;;;;;;1.55;0.80;;;19.20;1.00;;;;;;5062802;28;20050;-76
2023/09/28 10:40:07;;;;;;;1.63;0.70;;;19.30;1.00;;;;;;5060030;28;20060;-77
2023/09/28 10:42:35;;;;;;;1.80;0.88;;;19.40;1.00;;;;;;5061239;28;20097;-76
2023/09/28 10:45:02;;;;;;;2.38;0.80;;;19.50;1.00;;;;;;5079488;28;20051;-76
2023/09/28 10:47:31;;;;;;;1.90;0.90;;;19.60;1.00;;;;;;5067490;28;20135;-77
2023/09/28 10:49:59;;;;;;;2.28;0.90;;;19.60;1.00;;;;;;5067734;28;20048;-77
2023/09/28 10:52:27;;;;;;;1.15;0.68;;;19.60;1.00;;;;;;5082086;28;20052;-77
2023/09/28 10:54:54;;;;;;;1.52;0.90;;;19.60;1.00;;;;;;5067507;28;20047;-77
2023/09/28 10:57:30;;;;;;;1.00;0.68;;;19.70;1.00;;;;;;5083334;28;20052;-77
2023/09/28 11:00:02;;;;;;;1.75;0.73;;;19.80;1.00;;;;;;5067454;28;20517;-76
2023/09/28 11:02:35;;;;;;;2.05;0.98;;;19.90;1.00;;;;;;5066902;28;20101;-77
2023/09/28 11:05:02;;;;;;;1.17;0.77;;;20.00;1.00;;;;;;5050855;28;20047;-78
2023/09/28 11:07:29;;;;;;;0.68;0.52;;;20.10;1.00;;;;;;5049293;28;20164;-78
2023/09/28 11:09:58;;;;;;;1.77;1.05;;;20.20;1.00;;;;;;5086163;28;20091;-78
2023/09/28 11:12:31;;;;;;;1.33;0.70;;;20.30;1.00;;;;;;5086142;28;20052;-78
2023/09/28 11:14:58;;;;;;;1.48;0.70;;;20.30;1.00;;;;;;5089091;28;20079;-78
2023/09/28 11:17:26;;;;;;;1.88;0.90;;;20.30;1.00;;;;;;5089805;28;20139;-79
2023/09/28 11:19:54;;;;;;;1.25;0.80;;;20.40;1.00;;;;;;5069809;28;20127;-78
2023/09/28 11:22:22;;;;;;;1.15;0.70;;;20.60;1.00;;;;;;5054217;28;20567;-78
2023/09/28 11:24:49;;;;;;;1.17;0.70;;;20.70;1.00;;;;;;5050510;28;20090;-78
2023/09/28 11:27:16;;;;;;;1.85;1.00;;;20.80;1.00;;;;;;5049359;28;20052;-78
2023/09/28 11:29:43;;;;;;;1.55;0.73;;;20.80;1.00;;;;;;5061726;28;20426;-78
2023/09/28 11:32:10;;;;;;;1.77;1.23;;;20.70;1.00;;;;;;5090585;28;20376;-78
2023/09/28 11:34:38;;;;;;;2.78;1.58;;;20.50;1.00;;;;;;5069516;28;20052;-78
2023/09/28 11:37:12;;;;;;;3.05;1.77;;;20.30;1.00;;;;;;5078403;28;20163;-78
2023/09/28 11:39:39;;;;;;;3.35;1.55;;;20.10;1.00;;;;;;5065320;28;20048;-78
2023/09/28 11:42:07;;;;;;;3.00;1.20;;;20.00;1.00;;;;;;5065732;28;20075;-78
2023/09/28 11:44:34;;;;;;;3.55;1.50;;;20.10;1.00;;;;;;5082510;28;20048;-78
2023/09/28 11:47:04;;;;;;;3.53;1.30;;;20.00;1.00;;;;;;5044911;28;20056;-78
2023/09/28 11:49:34;;;;;;;2.85;1.45;;;20.00;1.00;;;;;;5049209;28;20075;-77
2023/09/28 11:52:02;;;;;;;2.35;1.40;;;19.90;1.00;;;;;;5048348;28;20051;-78
2023/09/28 11:54:29;;;;;;;2.78;1.50;;;20.00;1.00;;;;;;5062422;28;20040;-78
2023/09/28 11:56:57;;;;;;;3.25;1.38;;;20.10;1.00;;;;;;5063850;28;20531;-77
2023/09/28 11:59:24;;;;;;;2.38;1.20;;;20.30;1.00;;;;;;5061951;28;20445;-78
2023/09/28 12:01:52;;;;;;;1.52;1.08;;;20.30;1.00;;;;;;5080476;28;20056;-78
2023/09/28 12:04:19;;;;;;;1.77;1.13;;;20.20;1.00;;;;;;5062635;28;20392;-78
2023/09/28 12:06:46;;;;;;;2.60;1.30;;;20.10;1.00;;;;;;5044579;28;20044;-78
2023/09/28 12:09:17;;;;;;;2.25;1.20;;;20.10;1.00;;;;;;5046694;28;20048;-80
2023/09/28 12:11:45;;;;;;;2.03;1.02;;;20.00;1.00;;;;;;5064138;28;20313;-78
2023/09/28 12:14:12;;;;;;;2.75;1.50;;;20.10;1.00;;;;;;5063102;28;20086;-77
2023/09/28 12:16:42;;;;;;;2.65;1.50;;;20.40;1.00;;;;;;5057958;28;20054;-78
2023/09/28 12:19:13;;;;;;;2.88;1.15;;;20.90;1.00;;;;;;5084475;28;20056;-79
2023/09/28 12:21:41;;;;;;;4.28;1.73;;;21.60;1.00;;;;;;5069725;28;20063;-79
2023/09/28 12:24:08;;;;;;;4.78;1.80;;;21.80;1.00;;;;;;5075656;28;20059;-78
2023/09/28 12:26:35;;;;;;;3.08;1.52;;;21.90;1.00;;;;;;5044154;28;20059;-79
2023/09/28 12:29:01;;;;;;;2.55;1.30;;;21.80;1.00;;;;;;5059141;28;20063;-78
2023/09/28 12:31:28;;;;;;;1.95;1.15;;;21.70;1.00;;;;;;5061921;28;20048;-78
2023/09/28 12:33:56;;;;;;;4.07;1.50;;;21.70;1.00;;;;;;5079610;28;20064;-79
2023/09/28 12:36:23;;;;;;;2.30;1.33;;;21.50;1.00;;;;;;5078314;28;20052;-78
2023/09/28 12:38:51;;;;;;;2.15;1.17;;;21.40;99.90;;;;;;5078776;28;20071;-77
2023/09/28 12:41:18;;;;;;;1.90;1.08;;;21.30;99.90;;;;;;5080322;28;20074;-78
2023/09/28 12:43:48;;;;;;;1.45;0.90;;;21.20;99.90;;;;;;5078154;28;20457;-79
2023/09/28 12:46:14;;;;;;;2.17;1.10;;;21.10;99.90;;;;;;5075851;28;20055;-78
2023/09/28 12:48:42;;;;;;;2.70;1.20;;;21.00;99.90;;;;;;5079744;28;20171;-79
2023/09/28 12:51:09;;;;;;;2.53;1.15;;;20.80;99.90;;;;;;5080154;28;20153;-79
2023/09/28 12:53:38;;;;;;;2.65;1.17;;;20.70;99.90;;;;;;5061257;28;20055;-78
2023/09/28 12:56:05;;;;;;;1.80;1.25;;;20.60;99.90;;;;;;5057495;28;20052;-78
2023/09/28 12:58:33;;;;;;;1.73;1.17;;;20.80;99.90;;;;;;5074993;28;20139;-79
2023/09/28 13:01:00;;;;;;;2.13;1.20;;;21.10;99.90;;;;;;5060067;28;20048;-78
2023/09/28 13:03:26;;;;;;;1.65;1.13;;;21.30;99.90;;;;;;5042891;28;20043;-79